sensor_id;sensor_type;location;lat;lon;timestamp;P1;durP1;ratioP1;P2;durP2;ratioP2
18142;SDS011;9197;50.930;3.140;2023-05-10T00:02:21;37.70;;;20.63;;
18142;SDS011;9197;50.930;3.140;2023-05-10T00:04:49;33.57;;;20.30;;
18142;SDS011;9197;50.930;3.140;2023-05-10T00:07:17;33.90;;;19.30;;
18142;SDS011;9197;50.930;3.140;2023-05-10T00:09:44;35.70;;;20.20;;
18142;SDS011;9197;50.930;3.140;2023-05-10T00:12:12;32.03;;;20.80;;
18142;SDS011;9197;50.930;3.140;2023-05-10T00:14:39;35.40;;;21.57;;
18142;SDS011;9197;50.930;3.140;2023-05-10T00:17:07;35.20;;;19.93;;
18142;SDS011;9197;50.930;3.140;2023-05-10T00:19:36;33.37;;;21.07;;
18142;SDS011;9197;50.930;3.140;2023-05-10T00:22:04;33.20;;;20.70;;
18142;SDS011;9197;50.930;3.140;2023-05-10T00:24:32;36.10;;;21.53;;
18142;SDS011;9197;50.930;3.140;2023-05-10T00:26:59;38.90;;;22.63;;
18142;SDS011;9197;50.930;3.140;2023-05-10T00:29:29;36.57;;;22.17;;
18142;SDS011;9197;50.930;3.140;2023-05-10T00:31:56;35.87;;;22.07;;
18142;SDS011;9197;50.930;3.140;2023-05-10T00:34:24;38.13;;;23.13;;
18142;SDS011;9197;50.930;3.140;2023-05-10T00:36:53;41.67;;;22.67;;
18142;SDS011;9197;50.930;3.140;2023-05-10T00:39:21;36.57;;;20.83;;
18142;SDS011;9197;50.930;3.140;2023-05-10T00:41:48;35.30;;;22.63;;
18142;SDS011;9197;50.930;3.140;2023-05-10T00:44:16;33.40;;;21.77;;
18142;SDS011;9197;50.930;3.140;2023-05-10T00:46:43;44.87;;;23.50;;
18142;SDS011;9197;50.930;3.140;2023-05-10T00:49:11;37.93;;;20.77;;
18142;SDS011;9197;50.930;3.140;2023-05-10T00:51:39;36.00;;;21.47;;
18142;SDS011;9197;50.930;3.140;2023-05-10T00:54:09;40.50;;;21.73;;
18142;SDS011;9197;50.930;3.140;2023-05-10T00:56:37;30.23;;;19.87;;
18142;SDS011;9197;50.930;3.140;2023-05-10T00:59:05;37.30;;;20.20;;
18142;SDS011;9197;50.930;3.140;2023-05-10T01:01:32;31.83;;;19.77;;
18142;SDS011;9197;50.930;3.140;2023-05-10T01:04:00;33.57;;;19.93;;
18142;SDS011;9197;50.930;3.140;2023-05-10T01:06:29;34.17;;;19.50;;
18142;SDS011;9197;50.930;3.140;2023-05-10T01:08:57;35.63;;;19.20;;
18142;SDS011;9197;50.930;3.140;2023-05-10T01:11:26;28.20;;;18.93;;
18142;SDS011;9197;50.930;3.140;2023-05-10T01:13:54;32.03;;;19.30;;
18142;SDS011;9197;50.930;3.140;2023-05-10T01:16:22;29.13;;;18.17;;
18142;SDS011;9197;50.930;3.140;2023-05-10T01:18:50;31.63;;;19.13;;
18142;SDS011;9197;50.930;3.140;2023-05-10T01:21:21;26.20;;;18.20;;
18142;SDS011;9197;50.930;3.140;2023-05-10T01:23:57;28.30;;;18.10;;
18142;SDS011;9197;50.930;3.140;2023-05-10T01:26:43;30.83;;;20.90;;
18142;SDS011;9197;50.930;3.140;2023-05-10T01:29:28;35.23;;;22.03;;
18142;SDS011;9197;50.930;3.140;2023-05-10T01:32:13;31.67;;;20.63;;
18142;SDS011;9197;50.930;3.140;2023-05-10T01:34:45;33.30;;;22.47;;
18142;SDS011;9197;50.930;3.140;2023-05-10T01:37:18;30.53;;;21.37;;
18142;SDS011;9197;50.930;3.140;2023-05-10T01:39:49;33.07;;;23.30;;
18142;SDS011;9197;50.930;3.140;2023-05-10T01:42:22;34.23;;;22.73;;
18142;SDS011;9197;50.930;3.140;2023-05-10T01:44:52;30.77;;;22.87;;
18142;SDS011;9197;50.930;3.140;2023-05-10T01:47:23;33.83;;;23.00;;
18142;SDS011;9197;50.930;3.140;2023-05-10T01:49:55;44.17;;;24.43;;
18142;SDS011;9197;50.930;3.140;2023-05-10T01:52:32;36.90;;;25.50;;
18142;SDS011;9197;50.930;3.140;2023-05-10T01:55:00;39.60;;;25.57;;
18142;SDS011;9197;50.930;3.140;2023-05-10T01:57:33;37.93;;;25.03;;
18142;SDS011;9197;50.930;3.140;2023-05-10T02:00:01;35.40;;;23.97;;
18142;SDS011;9197;50.930;3.140;2023-05-10T02:02:30;36.80;;;24.03;;
18142;SDS011;9197;50.930;3.140;2023-05-10T02:05:00;39.23;;;23.93;;
18142;SDS011;9197;50.930;3.140;2023-05-10T02:07:28;38.00;;;23.53;;
18142;SDS011;9197;50.930;3.140;2023-05-10T02:09:55;31.13;;;23.03;;
18142;SDS011;9197;50.930;3.140;2023-05-10T02:12:23;42.07;;;26.30;;
18142;SDS011;9197;50.930;3.140;2023-05-10T02:14:51;34.17;;;24.67;;
18142;SDS011;9197;50.930;3.140;2023-05-10T02:17:19;33.87;;;23.90;;
18142;SDS011;9197;50.930;3.140;2023-05-10T02:19:49;33.83;;;22.30;;
18142;SDS011;9197;50.930;3.140;2023-05-10T02:22:16;38.03;;;24.77;;
18142;SDS011;9197;50.930;3.140;2023-05-10T02:24:44;31.37;;;22.20;;
18142;SDS011;9197;50.930;3.140;2023-05-10T02:27:12;32.90;;;23.13;;
18142;SDS011;9197;50.930;3.140;2023-05-10T02:29:40;30.00;;;21.47;;
18142;SDS011;9197;50.930;3.140;2023-05-10T02:32:08;32.63;;;20.83;;
18142;SDS011;9197;50.930;3.140;2023-05-10T02:34:37;30.50;;;21.73;;
18142;SDS011;9197;50.930;3.140;2023-05-10T02:37:06;29.93;;;22.60;;
18142;SDS011;9197;50.930;3.140;2023-05-10T02:39:34;34.67;;;22.77;;
18142;SDS011;9197;50.930;3.140;2023-05-10T02:42:01;33.23;;;22.43;;
18142;SDS011;9197;50.930;3.140;2023-05-10T02:44:29;32.87;;;22.73;;
18142;SDS011;9197;50.930;3.140;2023-05-10T02:46:57;31.40;;;22.57;;
18142;SDS011;9197;50.930;3.140;2023-05-10T02:49:25;33.87;;;22.83;;
18142;SDS011;9197;50.930;3.140;2023-05-10T02:51:54;42.50;;;25.97;;
18142;SDS011;9197;50.930;3.140;2023-05-10T02:54:24;42.13;;;26.40;;
18142;SDS011;9197;50.930;3.140;2023-05-10T02:56:56;41.53;;;24.77;;
18142;SDS011;9197;50.930;3.140;2023-05-10T02:59:25;41.20;;;25.30;;
18142;SDS011;9197;50.930;3.140;2023-05-10T03:01:53;42.60;;;24.90;;
18142;SDS011;9197;50.930;3.140;2023-05-10T03:04:20;45.43;;;26.53;;
18142;SDS011;9197;50.930;3.140;2023-05-10T03:06:48;43.63;;;25.93;;
18142;SDS011;9197;50.930;3.140;2023-05-10T03:09:15;43.20;;;27.07;;
18142;SDS011;9197;50.930;3.140;2023-05-10T03:11:47;44.03;;;26.90;;
18142;SDS011;9197;50.930;3.140;2023-05-10T03:14:21;42.83;;;25.87;;
18142;SDS011;9197;50.930;3.140;2023-05-10T03:16:52;41.70;;;25.67;;
18142;SDS011;9197;50.930;3.140;2023-05-10T03:19:22;41.43;;;26.20;;
18142;SDS011;9197;50.930;3.140;2023-05-10T03:21:52;37.47;;;27.30;;
18142;SDS011;9197;50.930;3.140;2023-05-10T03:24:20;42.10;;;24.70;;
18142;SDS011;9197;50.930;3.140;2023-05-10T03:26:50;36.47;;;24.20;;
18142;SDS011;9197;50.930;3.140;2023-05-10T03:29:20;43.97;;;26.20;;
18142;SDS011;9197;50.930;3.140;2023-05-10T03:31:47;41.20;;;24.13;;
18142;SDS011;9197;50.930;3.140;2023-05-10T03:34:15;43.10;;;25.97;;
18142;SDS011;9197;50.930;3.140;2023-05-10T03:36:42;42.30;;;27.50;;
18142;SDS011;9197;50.930;3.140;2023-05-10T03:39:10;46.17;;;26.00;;
18142;SDS011;9197;50.930;3.140;2023-05-10T03:41:37;45.77;;;26.73;;
18142;SDS011;9197;50.930;3.140;2023-05-10T03:44:06;44.40;;;25.03;;
18142;SDS011;9197;50.930;3.140;2023-05-10T03:46:34;47.73;;;26.70;;
18142;SDS011;9197;50.930;3.140;2023-05-10T03:49:01;39.70;;;25.13;;
18142;SDS011;9197;50.930;3.140;2023-05-10T03:51:28;45.60;;;26.37;;
18142;SDS011;9197;50.930;3.140;2023-05-10T03:53:56;45.63;;;26.57;;
18142;SDS011;9197;50.930;3.140;2023-05-10T03:56:23;47.83;;;26.50;;
18142;SDS011;9197;50.930;3.140;2023-05-10T03:58:51;43.23;;;28.00;;
18142;SDS011;9197;50.930;3.140;2023-05-10T04:01:20;49.30;;;28.30;;
18142;SDS011;9197;50.930;3.140;2023-05-10T04:03:47;52.13;;;28.17;;
18142;SDS011;9197;50.930;3.140;2023-05-10T04:06:14;48.97;;;27.93;;
18142;SDS011;9197;50.930;3.140;2023-05-10T04:08:42;58.13;;;30.40;;
18142;SDS011;9197;50.930;3.140;2023-05-10T04:11:10;57.03;;;30.43;;
18142;SDS011;9197;50.930;3.140;2023-05-10T04:13:39;50.30;;;29.40;;
18142;SDS011;9197;50.930;3.140;2023-05-10T04:16:06;55.23;;;30.20;;
18142;SDS011;9197;50.930;3.140;2023-05-10T04:18:35;55.00;;;30.50;;
18142;SDS011;9197;50.930;3.140;2023-05-10T04:21:02;56.67;;;31.13;;
18142;SDS011;9197;50.930;3.140;2023-05-10T04:23:30;52.27;;;29.90;;
18142;SDS011;9197;50.930;3.140;2023-05-10T04:26:00;53.63;;;29.10;;
18142;SDS011;9197;50.930;3.140;2023-05-10T04:28:28;51.00;;;27.20;;
18142;SDS011;9197;50.930;3.140;2023-05-10T04:31:00;54.07;;;30.20;;
18142;SDS011;9197;50.930;3.140;2023-05-10T04:33:27;46.20;;;27.60;;
18142;SDS011;9197;50.930;3.140;2023-05-10T04:35:59;48.20;;;29.73;;
18142;SDS011;9197;50.930;3.140;2023-05-10T04:38:26;61.03;;;28.30;;
18142;SDS011;9197;50.930;3.140;2023-05-10T04:40:54;45.43;;;26.37;;
18142;SDS011;9197;50.930;3.140;2023-05-10T04:43:21;43.57;;;26.27;;
18142;SDS011;9197;50.930;3.140;2023-05-10T04:45:49;50.67;;;26.30;;
18142;SDS011;9197;50.930;3.140;2023-05-10T04:48:16;45.37;;;27.13;;
18142;SDS011;9197;50.930;3.140;2023-05-10T04:50:44;42.47;;;26.07;;
18142;SDS011;9197;50.930;3.140;2023-05-10T04:53:13;42.43;;;26.37;;
18142;SDS011;9197;50.930;3.140;2023-05-10T04:55:40;45.17;;;27.40;;
18142;SDS011;9197;50.930;3.140;2023-05-10T04:58:07;48.27;;;27.00;;
18142;SDS011;9197;50.930;3.140;2023-05-10T05:00:35;51.13;;;26.50;;
18142;SDS011;9197;50.930;3.140;2023-05-10T05:03:05;47.73;;;26.10;;
18142;SDS011;9197;50.930;3.140;2023-05-10T05:05:32;40.43;;;25.30;;
18142;SDS011;9197;50.930;3.140;2023-05-10T05:07:59;38.47;;;25.07;;
18142;SDS011;9197;50.930;3.140;2023-05-10T05:10:28;41.60;;;24.33;;
18142;SDS011;9197;50.930;3.140;2023-05-10T05:12:56;40.67;;;24.03;;
18142;SDS011;9197;50.930;3.140;2023-05-10T05:15:23;37.40;;;21.43;;
18142;SDS011;9197;50.930;3.140;2023-05-10T05:17:51;31.67;;;20.83;;
18142;SDS011;9197;50.930;3.140;2023-05-10T05:20:18;32.70;;;20.87;;
18142;SDS011;9197;50.930;3.140;2023-05-10T05:22:46;33.80;;;19.90;;
18142;SDS011;9197;50.930;3.140;2023-05-10T05:25:13;31.10;;;20.03;;
18142;SDS011;9197;50.930;3.140;2023-05-10T05:27:42;36.40;;;22.93;;
18142;SDS011;9197;50.930;3.140;2023-05-10T05:30:10;38.90;;;21.67;;
18142;SDS011;9197;50.930;3.140;2023-05-10T05:32:39;37.80;;;22.80;;
18142;SDS011;9197;50.930;3.140;2023-05-10T05:35:09;32.43;;;21.50;;
18142;SDS011;9197;50.930;3.140;2023-05-10T05:37:39;32.70;;;21.83;;
18142;SDS011;9197;50.930;3.140;2023-05-10T05:40:07;38.03;;;22.97;;
18142;SDS011;9197;50.930;3.140;2023-05-10T05:42:34;34.47;;;21.13;;
18142;SDS011;9197;50.930;3.140;2023-05-10T05:45:05;35.37;;;21.47;;
18142;SDS011;9197;50.930;3.140;2023-05-10T05:47:33;33.27;;;22.07;;
18142;SDS011;9197;50.930;3.140;2023-05-10T05:50:02;35.40;;;21.83;;
18142;SDS011;9197;50.930;3.140;2023-05-10T05:52:30;33.03;;;20.40;;
18142;SDS011;9197;50.930;3.140;2023-05-10T05:54:57;27.80;;;20.93;;
18142;SDS011;9197;50.930;3.140;2023-05-10T05:57:25;33.80;;;22.13;;
18142;SDS011;9197;50.930;3.140;2023-05-10T05:59:52;31.03;;;20.87;;
18142;SDS011;9197;50.930;3.140;2023-05-10T06:02:21;34.17;;;21.30;;
18142;SDS011;9197;50.930;3.140;2023-05-10T06:04:49;31.47;;;21.20;;
18142;SDS011;9197;50.930;3.140;2023-05-10T06:07:16;29.33;;;20.50;;
18142;SDS011;9197;50.930;3.140;2023-05-10T06:09:43;34.33;;;20.63;;
18142;SDS011;9197;50.930;3.140;2023-05-10T06:12:12;28.50;;;21.60;;
18142;SDS011;9197;50.930;3.140;2023-05-10T06:14:39;27.23;;;19.97;;
18142;SDS011;9197;50.930;3.140;2023-05-10T06:17:07;28.63;;;21.40;;
18142;SDS011;9197;50.930;3.140;2023-05-10T06:19:36;31.07;;;21.23;;
18142;SDS011;9197;50.930;3.140;2023-05-10T06:22:03;28.43;;;20.63;;
18142;SDS011;9197;50.930;3.140;2023-05-10T06:24:31;31.10;;;22.27;;
18142;SDS011;9197;50.930;3.140;2023-05-10T06:26:58;29.27;;;20.70;;
18142;SDS011;9197;50.930;3.140;2023-05-10T06:29:25;31.20;;;20.60;;
18142;SDS011;9197;50.930;3.140;2023-05-10T06:31:53;26.97;;;20.23;;
18142;SDS011;9197;50.930;3.140;2023-05-10T06:34:20;26.23;;;19.43;;
18142;SDS011;9197;50.930;3.140;2023-05-10T06:36:49;25.40;;;19.57;;
18142;SDS011;9197;50.930;3.140;2023-05-10T06:39:16;27.97;;;18.83;;
18142;SDS011;9197;50.930;3.140;2023-05-10T06:41:44;26.13;;;19.20;;
18142;SDS011;9197;50.930;3.140;2023-05-10T06:44:11;29.17;;;21.30;;
18142;SDS011;9197;50.930;3.140;2023-05-10T06:46:39;33.13;;;21.20;;
18142;SDS011;9197;50.930;3.140;2023-05-10T06:49:06;31.83;;;22.47;;
18142;SDS011;9197;50.930;3.140;2023-05-10T06:51:34;28.83;;;22.33;;
18142;SDS011;9197;50.930;3.140;2023-05-10T06:54:03;25.50;;;20.77;;
18142;SDS011;9197;50.930;3.140;2023-05-10T06:56:30;29.37;;;21.30;;
18142;SDS011;9197;50.930;3.140;2023-05-10T06:59:00;25.00;;;20.60;;
18142;SDS011;9197;50.930;3.140;2023-05-10T07:01:28;25.50;;;19.77;;
18142;SDS011;9197;50.930;3.140;2023-05-10T07:03:55;25.23;;;19.53;;
18142;SDS011;9197;50.930;3.140;2023-05-10T07:06:22;23.37;;;20.37;;
18142;SDS011;9197;50.930;3.140;2023-05-10T07:08:50;25.53;;;20.33;;
18142;SDS011;9197;50.930;3.140;2023-05-10T07:11:19;29.00;;;21.97;;
18142;SDS011;9197;50.930;3.140;2023-05-10T07:13:46;33.73;;;23.47;;
18142;SDS011;9197;50.930;3.140;2023-05-10T07:16:13;25.50;;;21.60;;
18142;SDS011;9197;50.930;3.140;2023-05-10T07:18:41;26.40;;;22.43;;
18142;SDS011;9197;50.930;3.140;2023-05-10T07:21:08;27.40;;;22.20;;
18142;SDS011;9197;50.930;3.140;2023-05-10T07:23:35;28.00;;;22.20;;
18142;SDS011;9197;50.930;3.140;2023-05-10T07:26:03;26.70;;;22.20;;
18142;SDS011;9197;50.930;3.140;2023-05-10T07:28:32;23.83;;;20.70;;
18142;SDS011;9197;50.930;3.140;2023-05-10T07:31:01;29.70;;;21.80;;
18142;SDS011;9197;50.930;3.140;2023-05-10T07:33:29;25.23;;;20.93;;
18142;SDS011;9197;50.930;3.140;2023-05-10T07:35:56;27.20;;;21.83;;
18142;SDS011;9197;50.930;3.140;2023-05-10T07:38:24;28.47;;;22.20;;
18142;SDS011;9197;50.930;3.140;2023-05-10T07:40:51;28.03;;;22.77;;
18142;SDS011;9197;50.930;3.140;2023-05-10T07:43:20;27.93;;;22.73;;
18142;SDS011;9197;50.930;3.140;2023-05-10T07:45:48;25.37;;;22.67;;
18142;SDS011;9197;50.930;3.140;2023-05-10T07:48:16;25.77;;;21.03;;
18142;SDS011;9197;50.930;3.140;2023-05-10T07:50:43;23.00;;;20.37;;
18142;SDS011;9197;50.930;3.140;2023-05-10T07:53:11;23.13;;;19.83;;
18142;SDS011;9197;50.930;3.140;2023-05-10T07:55:38;24.80;;;19.57;;
18142;SDS011;9197;50.930;3.140;2023-05-10T07:58:05;23.80;;;19.40;;
18142;SDS011;9197;50.930;3.140;2023-05-10T08:00:33;20.23;;;18.17;;
18142;SDS011;9197;50.930;3.140;2023-05-10T08:03:02;23.60;;;19.27;;
18142;SDS011;9197;50.930;3.140;2023-05-10T08:05:29;21.53;;;19.27;;
18142;SDS011;9197;50.930;3.140;2023-05-10T08:07:57;22.23;;;18.97;;
18142;SDS011;9197;50.930;3.140;2023-05-10T08:10:25;22.23;;;19.63;;
18142;SDS011;9197;50.930;3.140;2023-05-10T08:12:55;24.70;;;20.13;;
18142;SDS011;9197;50.930;3.140;2023-05-10T08:15:23;25.20;;;20.37;;
18142;SDS011;9197;50.930;3.140;2023-05-10T08:17:51;28.03;;;20.23;;
18142;SDS011;9197;50.930;3.140;2023-05-10T08:20:20;22.60;;;20.27;;
18142;SDS011;9197;50.930;3.140;2023-05-10T08:22:47;21.50;;;19.30;;
18142;SDS011;9197;50.930;3.140;2023-05-10T08:25:15;21.10;;;17.57;;
18142;SDS011;9197;50.930;3.140;2023-05-10T08:27:42;18.63;;;15.87;;
18142;SDS011;9197;50.930;3.140;2023-05-10T08:30:10;19.07;;;17.03;;
18142;SDS011;9197;50.930;3.140;2023-05-10T08:32:38;17.13;;;15.33;;
18142;SDS011;9197;50.930;3.140;2023-05-10T08:35:06;17.77;;;15.93;;
18142;SDS011;9197;50.930;3.140;2023-05-10T08:37:35;19.63;;;15.50;;
18142;SDS011;9197;50.930;3.140;2023-05-10T08:40:03;19.47;;;17.43;;
18142;SDS011;9197;50.930;3.140;2023-05-10T08:42:30;20.83;;;18.43;;
18142;SDS011;9197;50.930;3.140;2023-05-10T08:45:00;24.10;;;19.43;;
18142;SDS011;9197;50.930;3.140;2023-05-10T08:47:28;20.97;;;18.90;;
18142;SDS011;9197;50.930;3.140;2023-05-10T08:49:56;21.67;;;19.60;;
18142;SDS011;9197;50.930;3.140;2023-05-10T08:52:26;25.57;;;20.37;;
18142;SDS011;9197;50.930;3.140;2023-05-10T08:54:56;21.93;;;19.57;;
18142;SDS011;9197;50.930;3.140;2023-05-10T08:57:24;23.07;;;20.57;;
18142;SDS011;9197;50.930;3.140;2023-05-10T08:59:51;21.20;;;19.20;;
18142;SDS011;9197;50.930;3.140;2023-05-10T09:02:19;24.87;;;21.20;;
18142;SDS011;9197;50.930;3.140;2023-05-10T09:04:47;23.00;;;20.60;;
18142;SDS011;9197;50.930;3.140;2023-05-10T09:07:15;22.20;;;19.93;;
18142;SDS011;9197;50.930;3.140;2023-05-10T09:09:43;24.30;;;21.20;;
18142;SDS011;9197;50.930;3.140;2023-05-10T09:12:12;25.50;;;22.77;;
18142;SDS011;9197;50.930;3.140;2023-05-10T09:14:40;23.77;;;21.23;;
18142;SDS011;9197;50.930;3.140;2023-05-10T09:17:09;24.87;;;22.17;;
18142;SDS011;9197;50.930;3.140;2023-05-10T09:19:37;28.00;;;22.80;;
18142;SDS011;9197;50.930;3.140;2023-05-10T09:22:10;27.00;;;24.23;;
18142;SDS011;9197;50.930;3.140;2023-05-10T09:24:38;29.37;;;25.10;;
18142;SDS011;9197;50.930;3.140;2023-05-10T09:27:11;29.47;;;24.40;;
18142;SDS011;9197;50.930;3.140;2023-05-10T09:29:39;28.73;;;23.43;;
18142;SDS011;9197;50.930;3.140;2023-05-10T09:32:06;25.53;;;21.53;;
18142;SDS011;9197;50.930;3.140;2023-05-10T09:34:34;27.23;;;19.43;;
18142;SDS011;9197;50.930;3.140;2023-05-10T09:37:05;26.07;;;18.73;;
18142;SDS011;9197;50.930;3.140;2023-05-10T09:39:33;22.87;;;19.93;;
18142;SDS011;9197;50.930;3.140;2023-05-10T09:42:02;24.57;;;19.03;;
18142;SDS011;9197;50.930;3.140;2023-05-10T09:44:31;25.37;;;18.33;;
18142;SDS011;9197;50.930;3.140;2023-05-10T09:46:59;22.70;;;17.90;;
18142;SDS011;9197;50.930;3.140;2023-05-10T09:49:27;20.97;;;17.50;;
18142;SDS011;9197;50.930;3.140;2023-05-10T09:52:01;21.73;;;15.33;;
18142;SDS011;9197;50.930;3.140;2023-05-10T09:54:29;19.90;;;15.43;;
18142;SDS011;9197;50.930;3.140;2023-05-10T09:56:56;19.83;;;14.87;;
18142;SDS011;9197;50.930;3.140;2023-05-10T09:59:24;19.70;;;14.30;;
18142;SDS011;9197;50.930;3.140;2023-05-10T10:01:53;19.80;;;13.77;;
18142;SDS011;9197;50.930;3.140;2023-05-10T10:04:22;19.57;;;13.33;;
18142;SDS011;9197;50.930;3.140;2023-05-10T10:07:00;21.00;;;13.30;;
18142;SDS011;9197;50.930;3.140;2023-05-10T10:09:27;17.57;;;13.07;;
18142;SDS011;9197;50.930;3.140;2023-05-10T10:11:55;15.70;;;12.70;;
18142;SDS011;9197;50.930;3.140;2023-05-10T10:14:22;21.10;;;12.87;;
18142;SDS011;9197;50.930;3.140;2023-05-10T10:16:51;17.80;;;11.90;;
18142;SDS011;9197;50.930;3.140;2023-05-10T10:19:20;18.20;;;11.80;;
18142;SDS011;9197;50.930;3.140;2023-05-10T10:21:49;14.93;;;10.93;;
18142;SDS011;9197;50.930;3.140;2023-05-10T10:24:16;12.70;;;9.70;;
18142;SDS011;9197;50.930;3.140;2023-05-10T10:26:46;16.63;;;11.47;;
18142;SDS011;9197;50.930;3.140;2023-05-10T10:29:18;14.50;;;11.53;;
18142;SDS011;9197;50.930;3.140;2023-05-10T10:31:48;16.13;;;10.63;;
18142;SDS011;9197;50.930;3.140;2023-05-10T10:34:25;12.43;;;10.35;;
18142;SDS011;9197;50.930;3.140;2023-05-10T10:36:53;13.57;;;10.82;;
18142;SDS011;9197;50.930;3.140;2023-05-10T10:39:21;14.32;;;9.35;;
18142;SDS011;9197;50.930;3.140;2023-05-10T10:41:50;10.45;;;9.35;;
18142;SDS011;9197;50.930;3.140;2023-05-10T10:44:34;14.60;;;9.43;;
18142;SDS011;9197;50.930;3.140;2023-05-10T10:49:50;16.95;;;8.32;;
18142;SDS011;9197;50.930;3.140;2023-05-10T10:52:23;12.10;;;6.75;;
18142;SDS011;9197;50.930;3.140;2023-05-10T10:54:54;11.38;;;7.20;;
18142;SDS011;9197;50.930;3.140;2023-05-10T10:57:24;11.65;;;7.25;;
18142;SDS011;9197;50.930;3.140;2023-05-10T10:59:54;10.85;;;6.18;;
18142;SDS011;9197;50.930;3.140;2023-05-10T11:02:44;9.23;;;6.93;;
18142;SDS011;9197;50.930;3.140;2023-05-10T11:05:24;11.13;;;7.97;;
18142;SDS011;9197;50.930;3.140;2023-05-10T11:07:52;11.30;;;7.13;;
18142;SDS011;9197;50.930;3.140;2023-05-10T11:10:20;9.23;;;7.22;;
18142;SDS011;9197;50.930;3.140;2023-05-10T11:12:51;17.02;;;8.32;;
18142;SDS011;9197;50.930;3.140;2023-05-10T11:15:19;14.35;;;8.63;;
18142;SDS011;9197;50.930;3.140;2023-05-10T11:17:47;11.88;;;8.63;;
18142;SDS011;9197;50.930;3.140;2023-05-10T11:20:17;12.63;;;8.65;;
18142;SDS011;9197;50.930;3.140;2023-05-10T11:22:52;13.77;;;9.90;;
18142;SDS011;9197;50.930;3.140;2023-05-10T11:25:23;13.05;;;7.45;;
18142;SDS011;9197;50.930;3.140;2023-05-10T11:27:53;14.05;;;8.52;;
18142;SDS011;9197;50.930;3.140;2023-05-10T11:30:20;13.52;;;7.93;;
18142;SDS011;9197;50.930;3.140;2023-05-10T11:32:48;14.00;;;8.50;;
18142;SDS011;9197;50.930;3.140;2023-05-10T11:35:15;15.13;;;8.30;;
18142;SDS011;9197;50.930;3.140;2023-05-10T11:37:43;14.38;;;7.85;;
18142;SDS011;9197;50.930;3.140;2023-05-10T11:40:16;8.30;;;6.38;;
18142;SDS011;9197;50.930;3.140;2023-05-10T11:42:43;12.50;;;6.93;;
18142;SDS011;9197;50.930;3.140;2023-05-10T11:45:11;12.07;;;6.75;;
18142;SDS011;9197;50.930;3.140;2023-05-10T11:47:39;9.27;;;5.95;;
18142;SDS011;9197;50.930;3.140;2023-05-10T11:50:08;11.65;;;5.88;;
18142;SDS011;9197;50.930;3.140;2023-05-10T11:52:36;12.63;;;6.40;;
18142;SDS011;9197;50.930;3.140;2023-05-10T11:55:04;9.23;;;5.82;;
18142;SDS011;9197;50.930;3.140;2023-05-10T11:57:33;13.38;;;6.35;;
18142;SDS011;9197;50.930;3.140;2023-05-10T12:00:00;9.30;;;6.25;;
18142;SDS011;9197;50.930;3.140;2023-05-10T12:02:29;11.57;;;6.40;;
18142;SDS011;9197;50.930;3.140;2023-05-10T12:04:56;8.98;;;5.10;;
18142;SDS011;9197;50.930;3.140;2023-05-10T12:07:23;9.82;;;5.53;;
18142;SDS011;9197;50.930;3.140;2023-05-10T12:10:02;11.35;;;4.65;;
18142;SDS011;9197;50.930;3.140;2023-05-10T12:12:36;10.38;;;5.25;;
18142;SDS011;9197;50.930;3.140;2023-05-10T12:15:04;7.20;;;4.32;;
18142;SDS011;9197;50.930;3.140;2023-05-10T12:17:32;10.20;;;5.00;;
18142;SDS011;9197;50.930;3.140;2023-05-10T12:20:12;8.55;;;4.38;;
18142;SDS011;9197;50.930;3.140;2023-05-10T12:22:40;8.07;;;4.20;;
18142;SDS011;9197;50.930;3.140;2023-05-10T12:25:08;9.85;;;4.85;;
18142;SDS011;9197;50.930;3.140;2023-05-10T12:27:37;8.75;;;4.18;;
18142;SDS011;9197;50.930;3.140;2023-05-10T12:30:05;6.93;;;3.92;;
18142;SDS011;9197;50.930;3.140;2023-05-10T12:32:38;7.90;;;4.07;;
18142;SDS011;9197;50.930;3.140;2023-05-10T12:35:06;8.48;;;3.92;;
18142;SDS011;9197;50.930;3.140;2023-05-10T12:37:34;11.45;;;3.72;;
18142;SDS011;9197;50.930;3.140;2023-05-10T12:40:05;8.07;;;3.78;;
18142;SDS011;9197;50.930;3.140;2023-05-10T12:42:34;7.50;;;3.85;;
18142;SDS011;9197;50.930;3.140;2023-05-10T12:45:03;5.65;;;2.88;;
18142;SDS011;9197;50.930;3.140;2023-05-10T12:47:31;7.32;;;2.95;;
18142;SDS011;9197;50.930;3.140;2023-05-10T12:49:59;4.80;;;2.20;;
18142;SDS011;9197;50.930;3.140;2023-05-10T12:52:26;8.55;;;2.75;;
18142;SDS011;9197;50.930;3.140;2023-05-10T12:54:53;7.47;;;3.65;;
18142;SDS011;9197;50.930;3.140;2023-05-10T12:57:21;6.38;;;3.10;;
18142;SDS011;9197;50.930;3.140;2023-05-10T12:59:48;8.18;;;4.15;;
18142;SDS011;9197;50.930;3.140;2023-05-10T13:02:17;7.80;;;3.33;;
18142;SDS011;9197;50.930;3.140;2023-05-10T13:04:46;6.28;;;2.70;;
18142;SDS011;9197;50.930;3.140;2023-05-10T13:07:13;6.50;;;3.10;;
18142;SDS011;9197;50.930;3.140;2023-05-10T13:09:40;7.95;;;3.33;;
18142;SDS011;9197;50.930;3.140;2023-05-10T13:12:08;7.80;;;3.75;;
18142;SDS011;9197;50.930;3.140;2023-05-10T13:14:35;9.85;;;3.40;;
18142;SDS011;9197;50.930;3.140;2023-05-10T13:17:03;9.82;;;3.80;;
18142;SDS011;9197;50.930;3.140;2023-05-10T13:19:31;6.05;;;3.80;;
18142;SDS011;9197;50.930;3.140;2023-05-10T13:21:59;10.18;;;3.83;;
18142;SDS011;9197;50.930;3.140;2023-05-10T13:24:26;7.07;;;2.47;;
18142;SDS011;9197;50.930;3.140;2023-05-10T13:26:53;7.57;;;3.45;;
18142;SDS011;9197;50.930;3.140;2023-05-10T13:29:21;8.00;;;3.08;;
18142;SDS011;9197;50.930;3.140;2023-05-10T13:31:48;5.00;;;2.28;;
18142;SDS011;9197;50.930;3.140;2023-05-10T13:34:15;6.38;;;2.97;;
18142;SDS011;9197;50.930;3.140;2023-05-10T13:36:46;7.78;;;2.28;;
18142;SDS011;9197;50.930;3.140;2023-05-10T13:39:14;7.10;;;2.22;;
18142;SDS011;9197;50.930;3.140;2023-05-10T13:41:42;5.47;;;2.63;;
18142;SDS011;9197;50.930;3.140;2023-05-10T13:44:11;7.70;;;3.10;;
18142;SDS011;9197;50.930;3.140;2023-05-10T13:46:39;7.50;;;3.47;;
18142;SDS011;9197;50.930;3.140;2023-05-10T13:49:06;6.20;;;2.80;;
18142;SDS011;9197;50.930;3.140;2023-05-10T13:51:34;6.78;;;3.13;;
18142;SDS011;9197;50.930;3.140;2023-05-10T13:54:02;6.65;;;3.10;;
18142;SDS011;9197;50.930;3.140;2023-05-10T13:56:30;5.78;;;3.03;;
18142;SDS011;9197;50.930;3.140;2023-05-10T13:58:57;8.77;;;2.92;;
18142;SDS011;9197;50.930;3.140;2023-05-10T14:01:25;9.52;;;4.18;;
18142;SDS011;9197;50.930;3.140;2023-05-10T14:03:54;7.65;;;3.05;;
18142;SDS011;9197;50.930;3.140;2023-05-10T14:06:21;9.52;;;3.78;;
18142;SDS011;9197;50.930;3.140;2023-05-10T14:08:48;6.88;;;2.30;;
18142;SDS011;9197;50.930;3.140;2023-05-10T14:11:17;10.00;;;4.10;;
18142;SDS011;9197;50.930;3.140;2023-05-10T14:13:45;5.57;;;2.53;;
18142;SDS011;9197;50.930;3.140;2023-05-10T14:16:12;8.73;;;2.72;;
18142;SDS011;9197;50.930;3.140;2023-05-10T14:18:39;6.53;;;2.50;;
18142;SDS011;9197;50.930;3.140;2023-05-10T14:21:07;7.57;;;3.30;;
18142;SDS011;9197;50.930;3.140;2023-05-10T14:23:34;6.97;;;3.70;;
18142;SDS011;9197;50.930;3.140;2023-05-10T14:26:02;8.27;;;2.95;;
18142;SDS011;9197;50.930;3.140;2023-05-10T14:28:31;9.90;;;3.88;;
18142;SDS011;9197;50.930;3.140;2023-05-10T14:30:58;7.95;;;3.63;;
18142;SDS011;9197;50.930;3.140;2023-05-10T14:33:25;10.02;;;3.45;;
18142;SDS011;9197;50.930;3.140;2023-05-10T14:35:53;10.07;;;3.72;;
18142;SDS011;9197;50.930;3.140;2023-05-10T14:38:21;7.65;;;3.38;;
18142;SDS011;9197;50.930;3.140;2023-05-10T14:40:49;11.50;;;3.65;;
18142;SDS011;9197;50.930;3.140;2023-05-10T14:43:16;7.35;;;3.33;;
18142;SDS011;9197;50.930;3.140;2023-05-10T14:45:45;9.27;;;3.63;;
18142;SDS011;9197;50.930;3.140;2023-05-10T14:48:12;6.50;;;3.22;;
18142;SDS011;9197;50.930;3.140;2023-05-10T14:50:42;11.38;;;3.90;;
18142;SDS011;9197;50.930;3.140;2023-05-10T14:53:09;9.27;;;3.20;;